sensor_id;sensor_type;location;lat;lon;timestamp;temperature;humidity
49855;DHT22;35752;52.164;21.244;2022-08-19T00:00:18;20.30;99.90
49855;DHT22;35752;52.164;21.244;2022-08-19T00:02:45;20.20;99.90
49855;DHT22;35752;52.164;21.244;2022-08-19T00:05:13;20.20;99.90
49855;DHT22;35752;52.164;21.244;2022-08-19T00:07:39;20.10;99.90
49855;DHT22;35752;52.164;21.244;2022-08-19T00:10:07;20.10;99.90
49855;DHT22;35752;52.164;21.244;2022-08-19T00:12:34;20.10;99.90
49855;DHT22;35752;52.164;21.244;2022-08-19T00:15:00;20.10;99.90
49855;DHT22;35752;52.164;21.244;2022-08-19T00:17:26;20.10;99.90
49855;DHT22;35752;52.164;21.244;2022-08-19T00:19:52;20.10;99.90
49855;DHT22;35752;52.164;21.244;2022-08-19T00:22:17;20.00;99.90
49855;DHT22;35752;52.164;21.244;2022-08-19T00:24:44;20.00;99.90
49855;DHT22;35752;52.164;21.244;2022-08-19T00:27:11;19.90;99.90
49855;DHT22;35752;52.164;21.244;2022-08-19T00:29:37;19.90;99.90
49855;DHT22;35752;52.164;21.244;2022-08-19T00:32:04;19.90;99.90
49855;DHT22;35752;52.164;21.244;2022-08-19T00:34:29;19.80;99.90
49855;DHT22;35752;52.164;21.244;2022-08-19T00:36:56;19.80;99.90
49855;DHT22;35752;52.164;21.244;2022-08-19T00:39:22;19.70;99.90
49855;DHT22;35752;52.164;21.244;2022-08-19T00:41:49;19.70;99.90
49855;DHT22;35752;52.164;21.244;2022-08-19T00:44:19;19.60;99.90
49855;DHT22;35752;52.164;21.244;2022-08-19T00:46:48;19.60;99.90
49855;DHT22;35752;52.164;21.244;2022-08-19T00:49:22;19.60;99.90
49855;DHT22;35752;52.164;21.244;2022-08-19T00:51:53;19.60;99.90
49855;DHT22;35752;52.164;21.244;2022-08-19T00:54:21;19.60;99.90
49855;DHT22;35752;52.164;21.244;2022-08-19T00:56:47;19.60;99.90
49855;DHT22;35752;52.164;21.244;2022-08-19T00:59:15;19.60;99.90
49855;DHT22;35752;52.164;21.244;2022-08-19T01:01:43;19.60;99.90
49855;DHT22;35752;52.164;21.244;2022-08-19T01:04:09;19.50;99.90
49855;DHT22;35752;52.164;21.244;2022-08-19T01:06:37;19.50;99.90
49855;DHT22;35752;52.164;21.244;2022-08-19T01:09:04;19.50;99.90
49855;DHT22;35752;52.164;21.244;2022-08-19T01:11:33;19.60;99.90
49855;DHT22;35752;52.164;21.244;2022-08-19T01:13:59;19.50;99.90
49855;DHT22;35752;52.164;21.244;2022-08-19T01:16:27;19.50;99.90
49855;DHT22;35752;52.164;21.244;2022-08-19T01:18:54;19.50;99.90
49855;DHT22;35752;52.164;21.244;2022-08-19T01:21:39;19.50;99.90
49855;DHT22;35752;52.164;21.244;2022-08-19T01:24:06;19.50;99.90
49855;DHT22;35752;52.164;21.244;2022-08-19T01:26:41;19.50;99.90
49855;DHT22;35752;52.164;21.244;2022-08-19T01:29:09;19.50;99.90
49855;DHT22;35752;52.164;21.244;2022-08-19T01:31:35;19.50;99.90
49855;DHT22;35752;52.164;21.244;2022-08-19T01:34:01;19.50;99.90
49855;DHT22;35752;52.164;21.244;2022-08-19T01:36:31;19.40;99.90
49855;DHT22;35752;52.164;21.244;2022-08-19T01:38:58;19.40;99.90
49855;DHT22;35752;52.164;21.244;2022-08-19T01:41:25;19.40;99.90
49855;DHT22;35752;52.164;21.244;2022-08-19T01:43:52;19.40;99.90
49855;DHT22;35752;52.164;21.244;2022-08-19T01:46:18;19.40;99.90
49855;DHT22;35752;52.164;21.244;2022-08-19T01:48:44;19.40;99.90
49855;DHT22;35752;52.164;21.244;2022-08-19T01:51:11;19.40;99.90
49855;DHT22;35752;52.164;21.244;2022-08-19T01:53:38;19.40;99.90
49855;DHT22;35752;52.164;21.244;2022-08-19T01:56:05;19.40;99.90
49855;DHT22;35752;52.164;21.244;2022-08-19T01:58:38;19.40;99.90
49855;DHT22;35752;52.164;21.244;2022-08-19T02:01:07;19.40;99.90
49855;DHT22;35752;52.164;21.244;2022-08-19T02:03:34;19.40;99.90
49855;DHT22;35752;52.164;21.244;2022-08-19T02:06:03;19.40;99.90
49855;DHT22;35752;52.164;21.244;2022-08-19T02:08:33;19.30;99.90
49855;DHT22;35752;52.164;21.244;2022-08-19T02:11:00;19.30;99.90
49855;DHT22;35752;52.164;21.244;2022-08-19T02:13:26;19.30;99.90
49855;DHT22;35752;52.164;21.244;2022-08-19T02:15:52;19.30;99.90
49855;DHT22;35752;52.164;21.244;2022-08-19T02:18:18;19.30;99.90
49855;DHT22;35752;52.164;21.244;2022-08-19T02:20:44;19.30;99.90
49855;DHT22;35752;52.164;21.244;2022-08-19T02:23:11;19.30;99.90
49855;DHT22;35752;52.164;21.244;2022-08-19T02:25:37;19.20;99.90
49855;DHT22;35752;52.164;21.244;2022-08-19T02:28:04;19.20;99.90
49855;DHT22;35752;52.164;21.244;2022-08-19T02:30:30;19.20;99.90
49855;DHT22;35752;52.164;21.244;2022-08-19T02:32:56;19.10;99.90
49855;DHT22;35752;52.164;21.244;2022-08-19T02:35:22;19.00;99.90
49855;DHT22;35752;52.164;21.244;2022-08-19T02:37:48;19.00;99.90
49855;DHT22;35752;52.164;21.244;2022-08-19T02:40:33;19.00;99.90
49855;DHT22;35752;52.164;21.244;2022-08-19T02:43:04;19.10;99.90
49855;DHT22;35752;52.164;21.244;2022-08-19T02:45:36;19.00;99.90
49855;DHT22;35752;52.164;21.244;2022-08-19T02:48:02;19.10;99.90
49855;DHT22;35752;52.164;21.244;2022-08-19T02:50:28;19.10;99.90
49855;DHT22;35752;52.164;21.244;2022-08-19T02:52:54;19.10;99.90
49855;DHT22;35752;52.164;21.244;2022-08-19T02:55:19;19.10;99.90
49855;DHT22;35752;52.164;21.244;2022-08-19T02:57:46;19.10;99.90
49855;DHT22;35752;52.164;21.244;2022-08-19T03:00:12;19.10;99.90
49855;DHT22;35752;52.164;21.244;2022-08-19T03:02:39;19.10;99.90
49855;DHT22;35752;52.164;21.244;2022-08-19T03:05:06;19.10;99.90
49855;DHT22;35752;52.164;21.244;2022-08-19T03:07:32;19.10;99.90
49855;DHT22;35752;52.164;21.244;2022-08-19T03:09:58;19.10;99.90
49855;DHT22;35752;52.164;21.244;2022-08-19T03:12:24;19.10;99.90
49855;DHT22;35752;52.164;21.244;2022-08-19T03:14:50;19.10;99.90
49855;DHT22;35752;52.164;21.244;2022-08-19T03:17:17;19.10;99.90
49855;DHT22;35752;52.164;21.244;2022-08-19T03:19:43;19.10;99.90
49855;DHT22;35752;52.164;21.244;2022-08-19T03:22:09;19.00;99.90
49855;DHT22;35752;52.164;21.244;2022-08-19T03:24:34;19.10;99.90
49855;DHT22;35752;52.164;21.244;2022-08-19T03:27:00;19.10;99.90
49855;DHT22;35752;52.164;21.244;2022-08-19T03:29:27;19.10;99.90
49855;DHT22;35752;52.164;21.244;2022-08-19T03:31:54;19.10;99.90
49855;DHT22;35752;52.164;21.244;2022-08-19T03:34:25;19.10;99.90
49855;DHT22;35752;52.164;21.244;2022-08-19T03:36:56;19.20;99.90
49855;DHT22;35752;52.164;21.244;2022-08-19T03:39:23;19.20;99.90
49855;DHT22;35752;52.164;21.244;2022-08-19T03:41:51;19.20;99.90
49855;DHT22;35752;52.164;21.244;2022-08-19T03:44:19;19.20;99.90
49855;DHT22;35752;52.164;21.244;2022-08-19T03:46:49;19.20;99.90
49855;DHT22;35752;52.164;21.244;2022-08-19T03:49:15;19.20;99.90
49855;DHT22;35752;52.164;21.244;2022-08-19T03:51:42;19.40;99.90
49855;DHT22;35752;52.164;21.244;2022-08-19T03:54:11;19.40;99.90
49855;DHT22;35752;52.164;21.244;2022-08-19T03:56:39;19.40;99.90
49855;DHT22;35752;52.164;21.244;2022-08-19T03:59:08;19.40;99.90
49855;DHT22;35752;52.164;21.244;2022-08-19T04:01:34;19.50;99.90
49855;DHT22;35752;52.164;21.244;2022-08-19T04:04:01;19.50;99.90
49855;DHT22;35752;52.164;21.244;2022-08-19T04:06:30;19.60;99.90
49855;DHT22;35752;52.164;21.244;2022-08-19T04:08:58;19.70;99.90
49855;DHT22;35752;52.164;21.244;2022-08-19T04:11:30;19.80;99.90
49855;DHT22;35752;52.164;21.244;2022-08-19T04:13:57;19.80;99.90
49855;DHT22;35752;52.164;21.244;2022-08-19T04:16:24;20.00;99.90
49855;DHT22;35752;52.164;21.244;2022-08-19T04:18:50;20.30;99.90
49855;DHT22;35752;52.164;21.244;2022-08-19T04:21:23;20.40;99.90
49855;DHT22;35752;52.164;21.244;2022-08-19T04:23:49;20.60;99.90
49855;DHT22;35752;52.164;21.244;2022-08-19T04:26:16;20.60;99.90
49855;DHT22;35752;52.164;21.244;2022-08-19T04:28:43;20.60;99.90
49855;DHT22;35752;52.164;21.244;2022-08-19T04:31:14;20.60;99.90
49855;DHT22;35752;52.164;21.244;2022-08-19T04:33:41;20.60;99.90
49855;DHT22;35752;52.164;21.244;2022-08-19T04:36:07;20.60;99.90
49855;DHT22;35752;52.164;21.244;2022-08-19T04:38:33;20.70;99.90
49855;DHT22;35752;52.164;21.244;2022-08-19T04:40:59;20.80;99.90
49855;DHT22;35752;52.164;21.244;2022-08-19T04:43:44;20.90;99.90
49855;DHT22;35752;52.164;21.244;2022-08-19T04:46:14;21.00;99.90
49855;DHT22;35752;52.164;21.244;2022-08-19T04:48:40;21.10;99.90
49855;DHT22;35752;52.164;21.244;2022-08-19T04:51:08;21.20;99.90
49855;DHT22;35752;52.164;21.244;2022-08-19T04:53:36;21.30;99.90
49855;DHT22;35752;52.164;21.244;2022-08-19T04:58:34;21.50;99.90
49855;DHT22;35752;52.164;21.244;2022-08-19T05:01:00;21.60;99.90
49855;DHT22;35752;52.164;21.244;2022-08-19T05:03:26;21.60;99.90
49855;DHT22;35752;52.164;21.244;2022-08-19T05:05:52;21.70;99.90
49855;DHT22;35752;52.164;21.244;2022-08-19T05:08:20;21.70;99.90
49855;DHT22;35752;52.164;21.244;2022-08-19T05:10:49;21.80;99.90
49855;DHT22;35752;52.164;21.244;2022-08-19T05:13:17;21.80;99.90
49855;DHT22;35752;52.164;21.244;2022-08-19T05:15:43;21.90;99.90
49855;DHT22;35752;52.164;21.244;2022-08-19T05:18:10;22.00;99.90
49855;DHT22;35752;52.164;21.244;2022-08-19T05:20:54;22.00;99.90
49855;DHT22;35752;52.164;21.244;2022-08-19T05:23:38;22.10;99.90
49855;DHT22;35752;52.164;21.244;2022-08-19T05:26:04;22.10;99.90
49855;DHT22;35752;52.164;21.244;2022-08-19T05:28:31;22.20;99.90
49855;DHT22;35752;52.164;21.244;2022-08-19T05:30:57;22.30;99.90
49855;DHT22;35752;52.164;21.244;2022-08-19T05:33:22;22.30;99.90
49855;DHT22;35752;52.164;21.244;2022-08-19T05:35:49;22.40;99.90
49855;DHT22;35752;52.164;21.244;2022-08-19T05:38:16;22.50;99.90
49855;DHT22;35752;52.164;21.244;2022-08-19T05:40:43;22.60;99.90
49855;DHT22;35752;52.164;21.244;2022-08-19T05:43:12;22.70;99.90
49855;DHT22;35752;52.164;21.244;2022-08-19T05:45:42;22.90;99.90
49855;DHT22;35752;52.164;21.244;2022-08-19T05:48:09;22.90;99.90
49855;DHT22;35752;52.164;21.244;2022-08-19T05:50:37;22.90;99.90
49855;DHT22;35752;52.164;21.244;2022-08-19T05:53:04;23.00;99.90
49855;DHT22;35752;52.164;21.244;2022-08-19T05:55:31;23.00;99.90
49855;DHT22;35752;52.164;21.244;2022-08-19T05:57:56;23.10;99.90
49855;DHT22;35752;52.164;21.244;2022-08-19T06:00:22;23.10;99.90
49855;DHT22;35752;52.164;21.244;2022-08-19T06:02:48;23.20;99.90
49855;DHT22;35752;52.164;21.244;2022-08-19T06:05:14;23.30;99.90
49855;DHT22;35752;52.164;21.244;2022-08-19T06:07:40;23.40;99.90
49855;DHT22;35752;52.164;21.244;2022-08-19T06:10:09;23.50;99.90
49855;DHT22;35752;52.164;21.244;2022-08-19T06:12:35;23.60;99.90
49855;DHT22;35752;52.164;21.244;2022-08-19T06:15:12;23.70;99.90
49855;DHT22;35752;52.164;21.244;2022-08-19T06:17:38;23.70;99.90
49855;DHT22;35752;52.164;21.244;2022-08-19T06:20:07;23.70;99.90
49855;DHT22;35752;52.164;21.244;2022-08-19T06:22:41;23.80;99.90
49855;DHT22;35752;52.164;21.244;2022-08-19T06:25:07;23.80;99.90
49855;DHT22;35752;52.164;21.244;2022-08-19T06:27:35;23.80;99.90
49855;DHT22;35752;52.164;21.244;2022-08-19T06:30:02;23.80;99.90
49855;DHT22;35752;52.164;21.244;2022-08-19T06:32:28;23.80;99.90
49855;DHT22;35752;52.164;21.244;2022-08-19T06:34:54;23.70;99.90
49855;DHT22;35752;52.164;21.244;2022-08-19T06:37:20;23.70;99.90
49855;DHT22;35752;52.164;21.244;2022-08-19T06:39:47;23.70;99.90
49855;DHT22;35752;52.164;21.244;2022-08-19T06:42:13;23.70;99.90
49855;DHT22;35752;52.164;21.244;2022-08-19T06:44:42;23.70;99.90
49855;DHT22;35752;52.164;21.244;2022-08-19T06:47:14;23.60;99.90
49855;DHT22;35752;52.164;21.244;2022-08-19T06:49:40;23.70;99.90
49855;DHT22;35752;52.164;21.244;2022-08-19T06:52:06;23.70;99.90
49855;DHT22;35752;52.164;21.244;2022-08-19T06:54:32;23.70;99.90
49855;DHT22;35752;52.164;21.244;2022-08-19T06:57:00;23.70;99.90
49855;DHT22;35752;52.164;21.244;2022-08-19T06:59:28;23.90;99.90
49855;DHT22;35752;52.164;21.244;2022-08-19T07:02:00;24.00;99.90
49855;DHT22;35752;52.164;21.244;2022-08-19T07:04:28;24.10;99.90
49855;DHT22;35752;52.164;21.244;2022-08-19T07:07:02;24.20;99.90
49855;DHT22;35752;52.164;21.244;2022-08-19T07:09:28;24.30;99.90
49855;DHT22;35752;52.164;21.244;2022-08-19T07:11:55;24.50;99.90
49855;DHT22;35752;52.164;21.244;2022-08-19T07:14:24;24.70;99.90
49855;DHT22;35752;52.164;21.244;2022-08-19T07:16:51;24.90;99.90
49855;DHT22;35752;52.164;21.244;2022-08-19T07:19:20;25.10;99.90
49855;DHT22;35752;52.164;21.244;2022-08-19T07:21:48;25.20;99.90
49855;DHT22;35752;52.164;21.244;2022-08-19T07:24:15;25.50;99.90
49855;DHT22;35752;52.164;21.244;2022-08-19T07:26:42;25.70;99.90
49855;DHT22;35752;52.164;21.244;2022-08-19T07:29:10;25.80;99.90
49855;DHT22;35752;52.164;21.244;2022-08-19T07:31:35;25.80;99.90
49855;DHT22;35752;52.164;21.244;2022-08-19T07:34:04;25.90;99.90
49855;DHT22;35752;52.164;21.244;2022-08-19T07:36:35;26.00;99.90
49855;DHT22;35752;52.164;21.244;2022-08-19T07:39:07;26.10;99.90
49855;DHT22;35752;52.164;21.244;2022-08-19T07:41:34;26.30;99.90
49855;DHT22;35752;52.164;21.244;2022-08-19T07:44:01;26.30;99.90
49855;DHT22;35752;52.164;21.244;2022-08-19T07:46:33;26.40;99.90
49855;DHT22;35752;52.164;21.244;2022-08-19T07:48:59;26.50;99.90
49855;DHT22;35752;52.164;21.244;2022-08-19T07:51:27;26.60;99.90
49855;DHT22;35752;52.164;21.244;2022-08-19T07:53:52;26.70;99.90
49855;DHT22;35752;52.164;21.244;2022-08-19T07:56:19;26.70;99.90
49855;DHT22;35752;52.164;21.244;2022-08-19T07:58:48;26.80;99.90
49855;DHT22;35752;52.164;21.244;2022-08-19T08:01:17;26.90;99.90
49855;DHT22;35752;52.164;21.244;2022-08-19T08:03:43;27.00;99.90
49855;DHT22;35752;52.164;21.244;2022-08-19T08:06:28;27.10;99.90
49855;DHT22;35752;52.164;21.244;2022-08-19T08:09:13;27.20;99.90
49855;DHT22;35752;52.164;21.244;2022-08-19T08:14:23;27.40;99.90
49855;DHT22;35752;52.164;21.244;2022-08-19T08:16:50;27.60;99.90
49855;DHT22;35752;52.164;21.244;2022-08-19T08:19:18;27.60;99.90
49855;DHT22;35752;52.164;21.244;2022-08-19T08:21:44;27.70;99.90
49855;DHT22;35752;52.164;21.244;2022-08-19T08:24:11;27.70;99.90
49855;DHT22;35752;52.164;21.244;2022-08-19T08:26:38;27.70;99.90
49855;DHT22;35752;52.164;21.244;2022-08-19T08:29:04;27.80;99.90
49855;DHT22;35752;52.164;21.244;2022-08-19T08:31:29;27.80;99.90
49855;DHT22;35752;52.164;21.244;2022-08-19T08:33:55;27.80;99.90
49855;DHT22;35752;52.164;21.244;2022-08-19T08:36:21;27.90;99.90
49855;DHT22;35752;52.164;21.244;2022-08-19T08:38:47;27.90;99.90
49855;DHT22;35752;52.164;21.244;2022-08-19T08:43:58;28.10;99.90
49855;DHT22;35752;52.164;21.244;2022-08-19T08:46:34;28.20;99.90
49855;DHT22;35752;52.164;21.244;2022-08-19T08:49:32;28.30;99.90
49855;DHT22;35752;52.164;21.244;2022-08-19T08:52:06;28.30;99.90
49855;DHT22;35752;52.164;21.244;2022-08-19T08:54:44;28.30;99.90
49855;DHT22;35752;52.164;21.244;2022-08-19T08:57:15;28.40;99.90
49855;DHT22;35752;52.164;21.244;2022-08-19T08:59:45;28.40;99.90
49855;DHT22;35752;52.164;21.244;2022-08-19T09:02:16;28.50;99.90
49855;DHT22;35752;52.164;21.244;2022-08-19T09:04:42;28.50;99.90
49855;DHT22;35752;52.164;21.244;2022-08-19T09:15:48;28.80;99.90
49855;DHT22;35752;52.164;21.244;2022-08-19T09:18:15;28.90;99.90
49855;DHT22;35752;52.164;21.244;2022-08-19T09:20:42;28.90;99.90
49855;DHT22;35752;52.164;21.244;2022-08-19T09:23:08;29.00;99.90
49855;DHT22;35752;52.164;21.244;2022-08-19T09:25:34;29.10;99.90
49855;DHT22;35752;52.164;21.244;2022-08-19T09:28:01;29.10;99.90
49855;DHT22;35752;52.164;21.244;2022-08-19T09:30:34;29.20;99.90
49855;DHT22;35752;52.164;21.244;2022-08-19T09:33:00;29.20;99.90
49855;DHT22;35752;52.164;21.244;2022-08-19T09:35:28;29.30;99.90
49855;DHT22;35752;52.164;21.244;2022-08-19T09:37:55;29.20;99.90
49855;DHT22;35752;52.164;21.244;2022-08-19T09:40:20;29.30;99.90
49855;DHT22;35752;52.164;21.244;2022-08-19T09:42:47;29.40;99.90
49855;DHT22;35752;52.164;21.244;2022-08-19T09:45:19;29.50;99.90
49855;DHT22;35752;52.164;21.244;2022-08-19T09:47:47;29.50;99.90
49855;DHT22;35752;52.164;21.244;2022-08-19T09:50:13;29.60;99.90
49855;DHT22;35752;52.164;21.244;2022-08-19T09:52:39;29.70;99.90
49855;DHT22;35752;52.164;21.244;2022-08-19T09:55:09;29.70;99.90
49855;DHT22;35752;52.164;21.244;2022-08-19T09:57:36;29.80;99.90
49855;DHT22;35752;52.164;21.244;2022-08-19T10:00:04;29.80;99.90
49855;DHT22;35752;52.164;21.244;2022-08-19T10:02:30;29.80;99.90
49855;DHT22;35752;52.164;21.244;2022-08-19T10:04:55;29.80;99.90
49855;DHT22;35752;52.164;21.244;2022-08-19T10:07:40;29.80;99.90
49855;DHT22;35752;52.164;21.244;2022-08-19T10:10:06;29.90;99.90
49855;DHT22;35752;52.164;21.244;2022-08-19T10:12:33;30.00;99.90
49855;DHT22;35752;52.164;21.244;2022-08-19T10:14:59;30.00;99.90
49855;DHT22;35752;52.164;21.244;2022-08-19T10:17:25;30.10;99.90
49855;DHT22;35752;52.164;21.244;2022-08-19T10:19:52;30.30;99.90
49855;DHT22;35752;52.164;21.244;2022-08-19T10:22:18;30.20;99.90
49855;DHT22;35752;52.164;21.244;2022-08-19T10:24:45;30.30;99.90
49855;DHT22;35752;52.164;21.244;2022-08-19T10:27:11;30.30;99.30
49855;DHT22;35752;52.164;21.244;2022-08-19T10:29:41;30.30;99.90
49855;DHT22;35752;52.164;21.244;2022-08-19T10:32:08;30.40;99.90
49855;DHT22;35752;52.164;21.244;2022-08-19T10:34:38;30.50;98.70
49855;DHT22;35752;52.164;21.244;2022-08-19T10:37:05;30.40;99.30
49855;DHT22;35752;52.164;21.244;2022-08-19T10:39:35;30.50;98.80
49855;DHT22;35752;52.164;21.244;2022-08-19T10:42:07;30.70;98.30
49855;DHT22;35752;52.164;21.244;2022-08-19T10:44:36;30.80;98.80
49855;DHT22;35752;52.164;21.244;2022-08-19T10:47:02;30.80;96.40
49855;DHT22;35752;52.164;21.244;2022-08-19T10:49:28;30.80;93.90
49855;DHT22;35752;52.164;21.244;2022-08-19T10:51:55;30.80;93.90
49855;DHT22;35752;52.164;21.244;2022-08-19T10:54:39;30.80;94.70
49855;DHT22;35752;52.164;21.244;2022-08-19T10:57:23;30.80;94.00
49855;DHT22;35752;52.164;21.244;2022-08-19T10:59:57;30.80;94.20
49855;DHT22;35752;52.164;21.244;2022-08-19T11:02:23;30.80;92.90
49855;DHT22;35752;52.164;21.244;2022-08-19T11:04:49;30.90;94.40
49855;DHT22;35752;52.164;21.244;2022-08-19T11:07:15;30.90;92.70
49855;DHT22;35752;52.164;21.244;2022-08-19T11:09:42;31.00;93.40
49855;DHT22;35752;52.164;21.244;2022-08-19T11:12:09;31.00;91.50
49855;DHT22;35752;52.164;21.244;2022-08-19T11:14:35;31.00;92.20
49855;DHT22;35752;52.164;21.244;2022-08-19T11:17:03;31.10;92.70
49855;DHT22;35752;52.164;21.244;2022-08-19T11:19:29;31.20;91.70
49855;DHT22;35752;52.164;21.244;2022-08-19T11:21:55;31.20;91.20
49855;DHT22;35752;52.164;21.244;2022-08-19T11:24:22;31.20;91.00
49855;DHT22;35752;52.164;21.244;2022-08-19T11:26:50;31.30;89.20
49855;DHT22;35752;52.164;21.244;2022-08-19T11:29:19;31.30;90.20
49855;DHT22;35752;52.164;21.244;2022-08-19T11:31:47;31.40;90.60
49855;DHT22;35752;52.164;21.244;2022-08-19T11:34:17;31.40;89.20
49855;DHT22;35752;52.164;21.244;2022-08-19T11:36:43;31.40;90.40
49855;DHT22;35752;52.164;21.244;2022-08-19T11:39:12;31.40;90.30
49855;DHT22;35752;52.164;21.244;2022-08-19T11:41:38;31.40;89.90
49855;DHT22;35752;52.164;21.244;2022-08-19T11:44:04;31.40;90.80
49855;DHT22;35752;52.164;21.244;2022-08-19T11:46:32;31.50;90.00
49855;DHT22;35752;52.164;21.244;2022-08-19T11:48:59;31.50;86.50
49855;DHT22;35752;52.164;21.244;2022-08-19T11:51:26;31.50;87.20
49855;DHT22;35752;52.164;21.244;2022-08-19T11:53:54;31.60;85.90
49855;DHT22;35752;52.164;21.244;2022-08-19T11:56:20;31.50;83.70
49855;DHT22;35752;52.164;21.244;2022-08-19T11:58:46;31.60;84.20
49855;DHT22;35752;52.164;21.244;2022-08-19T12:01:14;31.60;85.70
49855;DHT22;35752;52.164;21.244;2022-08-19T12:03:42;31.60;85.40
49855;DHT22;35752;52.164;21.244;2022-08-19T12:06:11;31.70;84.70
49855;DHT22;35752;52.164;21.244;2022-08-19T12:08:38;31.70;84.00
49855;DHT22;35752;52.164;21.244;2022-08-19T12:11:04;31.70;83.20
49855;DHT22;35752;52.164;21.244;2022-08-19T12:13:33;31.70;81.90
49855;DHT22;35752;52.164;21.244;2022-08-19T12:16:00;31.70;83.40
49855;DHT22;35752;52.164;21.244;2022-08-19T12:18:26;31.70;82.30
49855;DHT22;35752;52.164;21.244;2022-08-19T12:20:53;31.70;81.90
49855;DHT22;35752;52.164;21.244;2022-08-19T12:23:22;31.70;82.70
49855;DHT22;35752;52.164;21.244;2022-08-19T12:25:49;31.70;83.10
49855;DHT22;35752;52.164;21.244;2022-08-19T12:28:22;31.70;81.50
49855;DHT22;35752;52.164;21.244;2022-08-19T12:30:49;31.80;81.60
49855;DHT22;35752;52.164;21.244;2022-08-19T12:33:17;31.80;81.00
49855;DHT22;35752;52.164;21.244;2022-08-19T12:35:45;31.80;82.20
49855;DHT22;35752;52.164;21.244;2022-08-19T12:38:13;31.80;80.40
49855;DHT22;35752;52.164;21.244;2022-08-19T12:40:40;31.80;81.20
49855;DHT22;35752;52.164;21.244;2022-08-19T12:43:06;31.90;79.80
49855;DHT22;35752;52.164;21.244;2022-08-19T12:45:32;31.90;78.40
49855;DHT22;35752;52.164;21.244;2022-08-19T12:47:58;31.80;79.40
49855;DHT22;35752;52.164;21.244;2022-08-19T12:50:24;31.80;80.40
49855;DHT22;35752;52.164;21.244;2022-08-19T12:52:50;31.90;79.80
49855;DHT22;35752;52.164;21.244;2022-08-19T12:55:16;31.90;79.90
49855;DHT22;35752;52.164;21.244;2022-08-19T12:57:44;31.90;78.80
49855;DHT22;35752;52.164;21.244;2022-08-19T13:00:13;31.80;77.70
49855;DHT22;35752;52.164;21.244;2022-08-19T13:02:41;31.80;77.90
49855;DHT22;35752;52.164;21.244;2022-08-19T13:05:09;31.90;78.30
49855;DHT22;35752;52.164;21.244;2022-08-19T13:07:36;31.80;78.30
49855;DHT22;35752;52.164;21.244;2022-08-19T13:10:05;31.80;77.20
49855;DHT22;35752;52.164;21.244;2022-08-19T13:12:31;31.90;77.00
49855;DHT22;35752;52.164;21.244;2022-08-19T13:14:56;31.80;75.80
49855;DHT22;35752;52.164;21.244;2022-08-19T13:17:22;31.90;75.70
49855;DHT22;35752;52.164;21.244;2022-08-19T13:19:48;31.80;75.90
49855;DHT22;35752;52.164;21.244;2022-08-19T13:22:15;31.80;76.20
49855;DHT22;35752;52.164;21.244;2022-08-19T13:24:41;31.90;75.20
49855;DHT22;35752;52.164;21.244;2022-08-19T13:27:07;31.90;74.80
49855;DHT22;35752;52.164;21.244;2022-08-19T13:29:32;31.90;75.90
49855;DHT22;35752;52.164;21.244;2022-08-19T13:32:17;31.90;77.00
49855;DHT22;35752;52.164;21.244;2022-08-19T13:35:02;31.80;75.60
49855;DHT22;35752;52.164;21.244;2022-08-19T13:37:27;31.80;76.00
49855;DHT22;35752;52.164;21.244;2022-08-19T13:40:11;31.80;75.90
49855;DHT22;35752;52.164;21.244;2022-08-19T13:42:40;31.80;75.00
49855;DHT22;35752;52.164;21.244;2022-08-19T13:45:06;31.80;74.70
49855;DHT22;35752;52.164;21.244;2022-08-19T13:47:34;31.70;75.00
49855;DHT22;35752;52.164;21.244;2022-08-19T13:50:04;31.80;75.20
49855;DHT22;35752;52.164;21.244;2022-08-19T13:52:30;31.80;76.70
49855;DHT22;35752;52.164;21.244;2022-08-19T13:54:55;31.80;74.60
49855;DHT22;35752;52.164;21.244;2022-08-19T13:57:22;31.70;74.50
49855;DHT22;35752;52.164;21.244;2022-08-19T13:59:48;31.60;74.70
49855;DHT22;35752;52.164;21.244;2022-08-19T14:02:14;31.60;75.60
49855;DHT22;35752;52.164;21.244;2022-08-19T14:04:40;31.80;76.00
49855;DHT22;35752;52.164;21.244;2022-08-19T14:07:05;31.80;74.40
49855;DHT22;35752;52.164;21.244;2022-08-19T14:09:31;31.80;75.60
49855;DHT22;35752;52.164;21.244;2022-08-19T14:11:57;31.80;74.70
49855;DHT22;35752;52.164;21.244;2022-08-19T14:14:22;31.80;75.40
49855;DHT22;35752;52.164;21.244;2022-08-19T14:16:48;31.80;74.70
49855;DHT22;35752;52.164;21.244;2022-08-19T14:19:14;31.80;74.90
49855;DHT22;35752;52.164;21.244;2022-08-19T14:21:41;31.80;75.40
49855;DHT22;35752;52.164;21.244;2022-08-19T14:24:07;31.90;75.90
49855;DHT22;35752;52.164;21.244;2022-08-19T14:26:33;31.90;75.70
49855;DHT22;35752;52.164;21.244;2022-08-19T14:28:59;31.90;75.50
49855;DHT22;35752;52.164;21.244;2022-08-19T14:31:26;31.80;75.10
49855;DHT22;35752;52.164;21.244;2022-08-19T14:33:52;31.80;75.50
49855;DHT22;35752;52.164;21.244;2022-08-19T14:36:19;31.70;75.50
49855;DHT22;35752;52.164;21.244;2022-08-19T14:38:46;31.70;75.80
49855;DHT22;35752;52.164;21.244;2022-08-19T14:41:22;31.80;76.00
49855;DHT22;35752;52.164;21.244;2022-08-19T14:43:50;31.70;75.50
49855;DHT22;35752;52.164;21.244;2022-08-19T14:46:21;31.70;76.10
49855;DHT22;35752;52.164;21.244;2022-08-19T14:48:48;31.60;75.70
49855;DHT22;35752;52.164;21.244;2022-08-19T14:51:15;31.60;76.20
49855;DHT22;35752;52.164;21.244;2022-08-19T14:53:41;31.60;74.90
49855;DHT22;35752;52.164;21.244;2022-08-19T14:56:10;31.50;74.40
49855;DHT22;35752;52.164;21.244;2022-08-19T14:58:35;31.50;75.10
49855;DHT22;35752;52.164;21.244;2022-08-19T15:01:01;31.40;75.40
49855;DHT22;35752;52.164;21.244;2022-08-19T15:03:29;31.30;75.10
49855;DHT22;35752;52.164;21.244;2022-08-19T15:05:55;31.30;75.50
49855;DHT22;35752;52.164;21.244;2022-08-19T15:08:22;31.30;75.20
49855;DHT22;35752;52.164;21.244;2022-08-19T15:10:50;31.30;75.40
49855;DHT22;35752;52.164;21.244;2022-08-19T15:13:16;31.30;75.50
49855;DHT22;35752;52.164;21.244;2022-08-19T15:15:42;31.30;75.70
49855;DHT22;35752;52.164;21.244;2022-08-19T15:18:08;31.30;75.50
49855;DHT22;35752;52.164;21.244;2022-08-19T15:20:35;31.20;75.70
49855;DHT22;35752;52.164;21.244;2022-08-19T15:23:01;31.20;75.00
49855;DHT22;35752;52.164;21.244;2022-08-19T15:25:27;31.20;75.70
49855;DHT22;35752;52.164;21.244;2022-08-19T15:27:53;31.20;75.60
49855;DHT22;35752;52.164;21.244;2022-08-19T15:30:25;31.20;76.50
49855;DHT22;35752;52.164;21.244;2022-08-19T15:32:51;31.20;75.70
49855;DHT22;35752;52.164;21.244;2022-08-19T15:35:21;31.10;76.50